sensor_id;sensor_type;location;lat;lon;timestamp;pressure;altitude;pressure_sealevel;temperature;humidity
13934;BME280;7039;52.168;9.866;2023-03-09T00:01:50;98293.03;;;3.03;85.72
13934;BME280;7039;52.168;9.866;2023-03-09T00:04:18;98297.44;;;3.01;85.76
13934;BME280;7039;52.168;9.866;2023-03-09T00:06:45;98301.16;;;2.95;86.01
13934;BME280;7039;52.168;9.866;2023-03-09T00:09:13;98295.88;;;2.98;86.20
13934;BME280;7039;52.168;9.866;2023-03-09T00:11:40;98289.97;;;2.96;86.13
13934;BME280;7039;52.168;9.866;2023-03-09T00:14:07;98284.63;;;2.99;85.89
13934;BME280;7039;52.168;9.866;2023-03-09T00:16:37;98273.34;;;3.02;85.92
13934;BME280;7039;52.168;9.866;2023-03-09T00:19:04;98268.63;;;2.78;86.61
13934;BME280;7039;52.168;9.866;2023-03-09T00:21:31;98267.69;;;2.79;86.37
13934;BME280;7039;52.168;9.866;2023-03-09T00:24:02;98260.13;;;2.76;86.98
13934;BME280;7039;52.168;9.866;2023-03-09T00:26:29;98267.44;;;2.84;86.57
13934;BME280;7039;52.168;9.866;2023-03-09T00:28:56;98271.13;;;2.80;86.93
13934;BME280;7039;52.168;9.866;2023-03-09T00:31:22;98260.63;;;2.83;86.76
13934;BME280;7039;52.168;9.866;2023-03-09T00:33:50;98252.09;;;2.82;86.95
13934;BME280;7039;52.168;9.866;2023-03-09T00:36:17;98250.28;;;2.84;86.51
13934;BME280;7039;52.168;9.866;2023-03-09T00:38:49;98248.84;;;2.79;86.84
13934;BME280;7039;52.168;9.866;2023-03-09T00:41:16;98252.50;;;2.75;86.82
13934;BME280;7039;52.168;9.866;2023-03-09T00:43:42;98260.31;;;2.89;86.52
13934;BME280;7039;52.168;9.866;2023-03-09T00:46:09;98242.69;;;2.65;86.81
13934;BME280;7039;52.168;9.866;2023-03-09T00:48:36;98246.84;;;2.68;86.70
13934;BME280;7039;52.168;9.866;2023-03-09T00:51:05;98244.03;;;2.57;87.70
13934;BME280;7039;52.168;9.866;2023-03-09T00:53:31;98244.94;;;2.56;87.38
13934;BME280;7039;52.168;9.866;2023-03-09T00:56:00;98243.28;;;2.70;86.84
13934;BME280;7039;52.168;9.866;2023-03-09T00:58:27;98242.03;;;2.62;87.35
13934;BME280;7039;52.168;9.866;2023-03-09T01:00:53;98243.44;;;2.67;87.09
13934;BME280;7039;52.168;9.866;2023-03-09T01:03:20;98242.53;;;2.68;86.97
13934;BME280;7039;52.168;9.866;2023-03-09T01:05:46;98234.72;;;2.54;87.39
13934;BME280;7039;52.168;9.866;2023-03-09T01:08:14;98232.50;;;2.64;88.01
13934;BME280;7039;52.168;9.866;2023-03-09T01:10:41;98231.19;;;2.72;87.41
13934;BME280;7039;52.168;9.866;2023-03-09T01:13:08;98231.75;;;2.78;87.18
13934;BME280;7039;52.168;9.866;2023-03-09T01:15:35;98229.00;;;2.81;86.75
13934;BME280;7039;52.168;9.866;2023-03-09T01:18:01;98225.53;;;2.66;87.02
13934;BME280;7039;52.168;9.866;2023-03-09T01:20:28;98211.72;;;2.67;87.42
13934;BME280;7039;52.168;9.866;2023-03-09T01:22:54;98200.44;;;2.54;87.39
13934;BME280;7039;52.168;9.866;2023-03-09T01:25:22;98183.50;;;2.49;88.13
13934;BME280;7039;52.168;9.866;2023-03-09T01:27:50;98181.34;;;2.58;88.11
13934;BME280;7039;52.168;9.866;2023-03-09T01:30:17;98188.41;;;2.54;88.27
13934;BME280;7039;52.168;9.866;2023-03-09T01:32:43;98187.25;;;2.60;87.68
13934;BME280;7039;52.168;9.866;2023-03-09T01:35:10;98182.19;;;2.58;87.84
13934;BME280;7039;52.168;9.866;2023-03-09T01:37:37;98172.97;;;2.54;88.29
13934;BME280;7039;52.168;9.866;2023-03-09T01:40:05;98170.13;;;2.59;87.91
13934;BME280;7039;52.168;9.866;2023-03-09T01:42:34;98166.09;;;2.55;88.41
13934;BME280;7039;52.168;9.866;2023-03-09T01:47:53;98163.00;;;2.64;88.02
13934;BME280;7039;52.168;9.866;2023-03-09T01:50:23;98166.91;;;2.55;87.88
13934;BME280;7039;52.168;9.866;2023-03-09T01:52:52;98169.31;;;2.58;88.30
13934;BME280;7039;52.168;9.866;2023-03-09T01:55:22;98166.59;;;2.45;88.57
13934;BME280;7039;52.168;9.866;2023-03-09T01:57:53;98185.44;;;2.62;88.29
13934;BME280;7039;52.168;9.866;2023-03-09T02:00:23;98187.50;;;2.71;87.72
13934;BME280;7039;52.168;9.866;2023-03-09T02:02:52;98197.53;;;2.76;87.36
13934;BME280;7039;52.168;9.866;2023-03-09T02:05:26;98198.78;;;2.84;86.83
13934;BME280;7039;52.168;9.866;2023-03-09T02:07:57;98204.69;;;2.86;86.82
13934;BME280;7039;52.168;9.866;2023-03-09T02:10:27;98200.75;;;2.79;86.67
13934;BME280;7039;52.168;9.866;2023-03-09T02:12:58;98201.94;;;2.89;86.69
13934;BME280;7039;52.168;9.866;2023-03-09T02:15:26;98200.03;;;2.77;87.11
13934;BME280;7039;52.168;9.866;2023-03-09T02:17:53;98198.16;;;2.95;86.37
13934;BME280;7039;52.168;9.866;2023-03-09T02:20:22;98198.78;;;2.84;86.67
13934;BME280;7039;52.168;9.866;2023-03-09T02:22:50;98195.78;;;2.76;86.69
13934;BME280;7039;52.168;9.866;2023-03-09T02:25:22;98202.25;;;2.83;86.54
13934;BME280;7039;52.168;9.866;2023-03-09T02:27:53;98203.94;;;2.68;87.52
13934;BME280;7039;52.168;9.866;2023-03-09T02:30:20;98207.25;;;2.55;87.55
13934;BME280;7039;52.168;9.866;2023-03-09T02:32:48;98211.16;;;2.62;87.29
13934;BME280;7039;52.168;9.866;2023-03-09T02:35:14;98219.63;;;2.64;88.01
13934;BME280;7039;52.168;9.866;2023-03-09T02:37:41;98212.72;;;2.64;87.62
13934;BME280;7039;52.168;9.866;2023-03-09T02:40:12;98213.31;;;2.69;87.26
13934;BME280;7039;52.168;9.866;2023-03-09T02:42:39;98216.69;;;2.54;87.63
13934;BME280;7039;52.168;9.866;2023-03-09T02:45:10;98223.47;;;2.72;87.24
13934;BME280;7039;52.168;9.866;2023-03-09T02:47:37;98215.56;;;2.60;87.60
13934;BME280;7039;52.168;9.866;2023-03-09T02:50:05;98220.72;;;2.76;87.42
13934;BME280;7039;52.168;9.866;2023-03-09T02:52:32;98215.88;;;2.85;86.91
13934;BME280;7039;52.168;9.866;2023-03-09T02:54:59;98214.81;;;2.58;87.22
13934;BME280;7039;52.168;9.866;2023-03-09T02:57:25;98212.41;;;2.55;87.73
13934;BME280;7039;52.168;9.866;2023-03-09T02:59:51;98216.44;;;2.59;87.42
13934;BME280;7039;52.168;9.866;2023-03-09T03:02:19;98220.53;;;2.63;87.55
13934;BME280;7039;52.168;9.866;2023-03-09T03:04:46;98215.63;;;2.42;87.64
13934;BME280;7039;52.168;9.866;2023-03-09T03:07:13;98216.69;;;2.54;88.16
13934;BME280;7039;52.168;9.866;2023-03-09T03:09:40;98222.28;;;2.62;87.78
13934;BME280;7039;52.168;9.866;2023-03-09T03:12:07;98218.97;;;2.60;87.33
13934;BME280;7039;52.168;9.866;2023-03-09T03:14:34;98217.88;;;2.64;87.46
13934;BME280;7039;52.168;9.866;2023-03-09T03:17:01;98226.09;;;2.71;86.93
13934;BME280;7039;52.168;9.866;2023-03-09T03:19:29;98212.28;;;2.40;88.03
13934;BME280;7039;52.168;9.866;2023-03-09T03:21:57;98209.47;;;2.45;87.73
13934;BME280;7039;52.168;9.866;2023-03-09T03:24:24;98216.38;;;2.44;87.84
13934;BME280;7039;52.168;9.866;2023-03-09T03:26:50;98231.63;;;2.47;87.93
13934;BME280;7039;52.168;9.866;2023-03-09T03:29:17;98233.47;;;2.45;87.67
13934;BME280;7039;52.168;9.866;2023-03-09T03:31:43;98233.06;;;2.53;87.53
13934;BME280;7039;52.168;9.866;2023-03-09T03:34:10;98242.34;;;2.56;87.46
13934;BME280;7039;52.168;9.866;2023-03-09T03:36:38;98229.47;;;2.40;87.55
13934;BME280;7039;52.168;9.866;2023-03-09T03:39:04;98236.78;;;2.47;87.57
13934;BME280;7039;52.168;9.866;2023-03-09T03:41:31;98241.31;;;2.26;88.20
13934;BME280;7039;52.168;9.866;2023-03-09T03:43:57;98260.41;;;2.38;88.43
13934;BME280;7039;52.168;9.866;2023-03-09T03:46:24;98270.81;;;2.37;88.10
13934;BME280;7039;52.168;9.866;2023-03-09T03:48:50;98281.44;;;2.46;87.62
13934;BME280;7039;52.168;9.866;2023-03-09T03:51:17;98276.88;;;2.51;87.22
13934;BME280;7039;52.168;9.866;2023-03-09T03:53:44;98268.78;;;2.59;87.36
13934;BME280;7039;52.168;9.866;2023-03-09T03:56:11;98280.19;;;2.54;87.64
13934;BME280;7039;52.168;9.866;2023-03-09T03:58:37;98278.88;;;2.46;87.65
13934;BME280;7039;52.168;9.866;2023-03-09T04:01:04;98287.53;;;2.61;87.28
13934;BME280;7039;52.168;9.866;2023-03-09T04:03:31;98294.09;;;2.67;87.01
13934;BME280;7039;52.168;9.866;2023-03-09T04:05:57;98291.59;;;2.65;86.76
13934;BME280;7039;52.168;9.866;2023-03-09T04:08:24;98295.34;;;2.76;86.07
13934;BME280;7039;52.168;9.866;2023-03-09T04:10:52;98296.84;;;2.80;86.04
13934;BME280;7039;52.168;9.866;2023-03-09T04:13:19;98302.84;;;2.47;86.88
13934;BME280;7039;52.168;9.866;2023-03-09T04:15:45;98323.19;;;2.51;87.40
13934;BME280;7039;52.168;9.866;2023-03-09T04:18:12;98321.22;;;2.57;86.96
13934;BME280;7039;52.168;9.866;2023-03-09T04:20:39;98329.06;;;2.87;86.02
13934;BME280;7039;52.168;9.866;2023-03-09T04:23:07;98327.47;;;2.68;86.71
13934;BME280;7039;52.168;9.866;2023-03-09T04:25:34;98324.38;;;2.62;86.70
13934;BME280;7039;52.168;9.866;2023-03-09T04:28:02;98324.66;;;2.73;86.33
13934;BME280;7039;52.168;9.866;2023-03-09T04:30:28;98323.16;;;2.69;86.26
13934;BME280;7039;52.168;9.866;2023-03-09T04:32:55;98326.97;;;2.62;86.74
13934;BME280;7039;52.168;9.866;2023-03-09T04:35:22;98339.50;;;2.68;86.32
13934;BME280;7039;52.168;9.866;2023-03-09T04:37:48;98340.13;;;2.56;86.68
13934;BME280;7039;52.168;9.866;2023-03-09T04:40:17;98346.28;;;2.53;87.16
13934;BME280;7039;52.168;9.866;2023-03-09T04:42:44;98356.41;;;2.56;86.94
13934;BME280;7039;52.168;9.866;2023-03-09T04:45:11;98354.47;;;2.44;87.36
13934;BME280;7039;52.168;9.866;2023-03-09T04:47:38;98362.78;;;2.32;88.18
13934;BME280;7039;52.168;9.866;2023-03-09T04:50:05;98350.38;;;2.40;88.05
13934;BME280;7039;52.168;9.866;2023-03-09T04:52:31;98340.50;;;2.32;87.97
13934;BME280;7039;52.168;9.866;2023-03-09T04:54:58;98350.59;;;2.53;87.39
13934;BME280;7039;52.168;9.866;2023-03-09T04:57:25;98342.66;;;2.40;87.79
13934;BME280;7039;52.168;9.866;2023-03-09T04:59:51;98349.16;;;2.47;87.81
13934;BME280;7039;52.168;9.866;2023-03-09T05:02:19;98340.69;;;2.45;87.18
13934;BME280;7039;52.168;9.866;2023-03-09T05:04:46;98340.44;;;2.49;87.55
13934;BME280;7039;52.168;9.866;2023-03-09T05:07:13;98357.84;;;2.62;87.10
13934;BME280;7039;52.168;9.866;2023-03-09T05:09:39;98365.63;;;2.60;86.68
13934;BME280;7039;52.168;9.866;2023-03-09T05:12:06;98379.03;;;2.49;87.59
13934;BME280;7039;52.168;9.866;2023-03-09T05:14:34;98392.59;;;2.53;87.32
13934;BME280;7039;52.168;9.866;2023-03-09T05:17:01;98391.59;;;2.56;86.67
13934;BME280;7039;52.168;9.866;2023-03-09T05:40:56;98434.72;;;2.68;86.72
13934;BME280;7039;52.168;9.866;2023-03-09T05:43:23;98419.09;;;2.38;87.73
13934;BME280;7039;52.168;9.866;2023-03-09T05:45:55;98428.25;;;2.43;87.51
13934;BME280;7039;52.168;9.866;2023-03-09T05:48:36;98428.00;;;2.65;87.25
13934;BME280;7039;52.168;9.866;2023-03-09T05:51:17;98444.22;;;2.50;87.16
13934;BME280;7039;52.168;9.866;2023-03-09T06:13:44;98479.56;;;2.64;87.16
13934;BME280;7039;52.168;9.866;2023-03-09T06:17:07;98480.63;;;2.60;86.14
13934;BME280;7039;52.168;9.866;2023-03-09T06:36:15;98500.81;;;3.02;85.03
13934;BME280;7039;52.168;9.866;2023-03-09T06:38:57;98518.97;;;2.99;85.16
13934;BME280;7039;52.168;9.866;2023-03-09T06:41:24;98511.06;;;3.20;84.54
13934;BME280;7039;52.168;9.866;2023-03-09T06:43:57;98499.94;;;3.02;84.46
13934;BME280;7039;52.168;9.866;2023-03-09T06:46:24;98513.88;;;3.15;84.64
13934;BME280;7039;52.168;9.866;2023-03-09T08:12:35;98646.72;;;4.21;80.21
13934;BME280;7039;52.168;9.866;2023-03-09T08:15:18;98651.38;;;4.14;80.03
13934;BME280;7039;52.168;9.866;2023-03-09T09:05:43;98737.19;;;4.67;78.75
13934;BME280;7039;52.168;9.866;2023-03-09T09:08:10;98741.16;;;4.56;78.76
13934;BME280;7039;52.168;9.866;2023-03-09T09:10:38;98733.94;;;4.14;79.81
13934;BME280;7039;52.168;9.866;2023-03-09T09:13:05;98732.00;;;4.17;80.30
13934;BME280;7039;52.168;9.866;2023-03-09T09:15:31;98725.16;;;4.34;79.81
13934;BME280;7039;52.168;9.866;2023-03-09T09:17:58;98720.63;;;4.22;79.72
13934;BME280;7039;52.168;9.866;2023-03-09T09:20:25;98730.94;;;4.22;79.97
13934;BME280;7039;52.168;9.866;2023-03-09T09:22:53;98737.91;;;4.53;78.94
13934;BME280;7039;52.168;9.866;2023-03-09T09:25:19;98733.19;;;4.45;79.15
13934;BME280;7039;52.168;9.866;2023-03-09T09:27:48;98725.84;;;4.20;79.80
13934;BME280;7039;52.168;9.866;2023-03-09T09:30:15;98731.50;;;4.60;79.12
13934;BME280;7039;52.168;9.866;2023-03-09T09:32:43;98731.94;;;5.00;78.18
13934;BME280;7039;52.168;9.866;2023-03-09T09:35:10;98738.19;;;4.64;78.42
13934;BME280;7039;52.168;9.866;2023-03-09T09:37:37;98752.66;;;5.14;77.66
13934;BME280;7039;52.168;9.866;2023-03-09T09:40:10;98753.84;;;5.55;76.86
13934;BME280;7039;52.168;9.866;2023-03-09T09:42:38;98752.13;;;6.00;75.46
13934;BME280;7039;52.168;9.866;2023-03-09T09:45:25;98778.38;;;6.08;74.13
13934;BME280;7039;52.168;9.866;2023-03-09T09:47:54;98761.38;;;5.74;74.57
13934;BME280;7039;52.168;9.866;2023-03-09T09:50:28;98766.38;;;6.07;74.07
13934;BME280;7039;52.168;9.866;2023-03-09T09:52:59;98766.72;;;6.15;73.91
13934;BME280;7039;52.168;9.866;2023-03-09T09:55:32;98764.88;;;6.17;73.67
13934;BME280;7039;52.168;9.866;2023-03-09T09:58:05;98769.03;;;6.20;73.47
13934;BME280;7039;52.168;9.866;2023-03-09T10:00:40;98771.00;;;6.02;73.83
13934;BME280;7039;52.168;9.866;2023-03-09T10:03:11;98769.97;;;6.04;73.01
13934;BME280;7039;52.168;9.866;2023-03-09T10:05:43;98780.63;;;6.14;73.39
13934;BME280;7039;52.168;9.866;2023-03-09T10:08:20;98778.03;;;6.28;72.92
13934;BME280;7039;52.168;9.866;2023-03-09T10:10:49;98762.03;;;5.77;73.90
13934;BME280;7039;52.168;9.866;2023-03-09T10:13:21;98766.16;;;5.96;73.87
13934;BME280;7039;52.168;9.866;2023-03-09T10:15:50;98776.94;;;6.18;73.98
13934;BME280;7039;52.168;9.866;2023-03-09T10:18:19;98783.97;;;6.45;73.61
13934;BME280;7039;52.168;9.866;2023-03-09T10:20:51;98788.50;;;6.70;71.62
13934;BME280;7039;52.168;9.866;2023-03-09T10:23:21;98786.25;;;6.78;71.60
13934;BME280;7039;52.168;9.866;2023-03-09T10:25:52;98784.56;;;6.92;71.48
13934;BME280;7039;52.168;9.866;2023-03-09T10:28:24;98792.22;;;7.07;70.70
13934;BME280;7039;52.168;9.866;2023-03-09T10:30:56;98795.50;;;7.24;70.47
13934;BME280;7039;52.168;9.866;2023-03-09T10:33:32;98797.13;;;7.12;70.70
13934;BME280;7039;52.168;9.866;2023-03-09T10:36:06;98801.72;;;7.21;70.15
13934;BME280;7039;52.168;9.866;2023-03-09T10:38:34;98798.91;;;7.24;70.17
13934;BME280;7039;52.168;9.866;2023-03-09T10:41:11;98793.69;;;7.11;70.85
13934;BME280;7039;52.168;9.866;2023-03-09T10:43:39;98791.84;;;7.14;70.29
13934;BME280;7039;52.168;9.866;2023-03-09T10:46:12;98782.88;;;7.05;70.57
13934;BME280;7039;52.168;9.866;2023-03-09T10:48:39;98791.44;;;7.20;70.35
13934;BME280;7039;52.168;9.866;2023-03-09T10:51:20;98796.81;;;7.17;70.39
13934;BME280;7039;52.168;9.866;2023-03-09T10:53:47;98794.59;;;7.10;69.87
13934;BME280;7039;52.168;9.866;2023-03-09T10:56:19;98801.69;;;6.94;70.53
13934;BME280;7039;52.168;9.866;2023-03-09T10:58:46;98798.97;;;7.10;70.31
13934;BME280;7039;52.168;9.866;2023-03-09T11:01:22;98799.38;;;6.89;71.13
13934;BME280;7039;52.168;9.866;2023-03-09T11:03:50;98809.47;;;6.94;70.82
13934;BME280;7039;52.168;9.866;2023-03-09T11:06:24;98814.13;;;6.75;71.57
13934;BME280;7039;52.168;9.866;2023-03-09T11:08:55;98822.16;;;6.27;72.61
13934;BME280;7039;52.168;9.866;2023-03-09T11:11:26;98837.44;;;6.89;71.45
13934;BME280;7039;52.168;9.866;2023-03-09T11:13:54;98840.66;;;6.93;70.99
13934;BME280;7039;52.168;9.866;2023-03-09T11:16:23;98836.94;;;6.97;71.42
13934;BME280;7039;52.168;9.866;2023-03-09T11:19:04;98837.53;;;6.73;70.70
13934;BME280;7039;52.168;9.866;2023-03-09T11:21:31;98836.59;;;6.74;71.17
13934;BME280;7039;52.168;9.866;2023-03-09T11:24:00;98827.25;;;6.86;71.94
13934;BME280;7039;52.168;9.866;2023-03-09T11:26:32;98830.41;;;6.48;71.59
13934;BME280;7039;52.168;9.866;2023-03-09T11:29:06;98843.91;;;6.82;71.68
13934;BME280;7039;52.168;9.866;2023-03-09T11:31:38;98855.47;;;6.62;71.31
13934;BME280;7039;52.168;9.866;2023-03-09T11:34:06;98839.66;;;5.77;73.00
13934;BME280;7039;52.168;9.866;2023-03-09T11:36:38;98850.59;;;5.51;75.08
13934;BME280;7039;52.168;9.866;2023-03-09T11:39:15;98843.56;;;5.69;75.31
13934;BME280;7039;52.168;9.866;2023-03-09T11:41:45;98851.50;;;5.97;74.75
13934;BME280;7039;52.168;9.866;2023-03-09T11:44:22;98855.34;;;6.20;73.94
13934;BME280;7039;52.168;9.866;2023-03-09T11:46:51;98865.63;;;6.36;73.44
13934;BME280;7039;52.168;9.866;2023-03-09T11:49:23;98866.75;;;6.46;72.96
13934;BME280;7039;52.168;9.866;2023-03-09T11:51:52;98852.53;;;5.93;73.97
13934;BME280;7039;52.168;9.866;2023-03-09T11:54:22;98844.38;;;6.15;74.12
13934;BME280;7039;52.168;9.866;2023-03-09T11:56:54;98843.63;;;5.83;74.68
13934;BME280;7039;52.168;9.866;2023-03-09T11:59:23;98845.88;;;5.89;75.38
13934;BME280;7039;52.168;9.866;2023-03-09T12:01:57;98854.09;;;6.12;74.89
13934;BME280;7039;52.168;9.866;2023-03-09T12:04:25;98840.53;;;5.76;74.99
13934;BME280;7039;52.168;9.866;2023-03-09T12:06:53;98843.16;;;5.60;76.24
13934;BME280;7039;52.168;9.866;2023-03-09T12:09:28;98847.84;;;5.54;76.72
13934;BME280;7039;52.168;9.866;2023-03-09T12:12:01;98852.19;;;5.99;75.72
13934;BME280;7039;52.168;9.866;2023-03-09T12:14:33;98851.56;;;5.96;74.66
13934;BME280;7039;52.168;9.866;2023-03-09T12:17:05;98858.41;;;6.27;74.51
13934;BME280;7039;52.168;9.866;2023-03-09T12:19:36;98857.19;;;6.33;74.00
13934;BME280;7039;52.168;9.866;2023-03-09T12:22:05;98860.72;;;6.60;73.51
13934;BME280;7039;52.168;9.866;2023-03-09T12:24:38;98870.22;;;6.31;74.05
13934;BME280;7039;52.168;9.866;2023-03-09T12:27:16;98866.13;;;6.57;73.24
13934;BME280;7039;52.168;9.866;2023-03-09T12:29:45;98871.81;;;6.34;72.50
13934;BME280;7039;52.168;9.866;2023-03-09T12:32:40;98879.06;;;6.43;72.63
13934;BME280;7039;52.168;9.866;2023-03-09T12:38:20;98862.50;;;5.69;75.58
13934;BME280;7039;52.168;9.866;2023-03-09T12:40:48;98857.03;;;5.43;76.64
13934;BME280;7039;52.168;9.866;2023-03-09T12:43:41;98869.59;;;5.97;75.16
13934;BME280;7039;52.168;9.866;2023-03-09T12:46:37;98864.03;;;5.57;76.65
13934;BME280;7039;52.168;9.866;2023-03-09T12:49:13;98859.34;;;5.80;76.01
13934;BME280;7039;52.168;9.866;2023-03-09T12:51:43;98859.69;;;6.04;75.82
13934;BME280;7039;52.168;9.866;2023-03-09T12:54:21;98860.94;;;6.13;75.07
13934;BME280;7039;52.168;9.866;2023-03-09T12:56:49;98876.50;;;5.97;74.88
13934;BME280;7039;52.168;9.866;2023-03-09T12:59:22;98888.66;;;6.11;74.94
13934;BME280;7039;52.168;9.866;2023-03-09T13:01:50;98875.41;;;5.85;74.51
13934;BME280;7039;52.168;9.866;2023-03-09T13:04:19;98888.50;;;6.14;74.44
13934;BME280;7039;52.168;9.866;2023-03-09T13:06:53;98899.97;;;6.24;74.38
13934;BME280;7039;52.168;9.866;2023-03-09T13:09:23;98885.44;;;5.91;74.49
13934;BME280;7039;52.168;9.866;2023-03-09T13:11:58;98883.94;;;5.87;74.32
13934;BME280;7039;52.168;9.866;2023-03-09T13:15:19;98894.72;;;5.79;74.72
13934;BME280;7039;52.168;9.866;2023-03-09T13:18:03;98899.41;;;6.19;74.50
13934;BME280;7039;52.168;9.866;2023-03-09T13:20:34;98894.84;;;6.08;74.55
13934;BME280;7039;52.168;9.866;2023-03-09T13:23:04;98892.88;;;5.81;74.63
13934;BME280;7039;52.168;9.866;2023-03-09T13:25:35;98886.28;;;5.76;75.49
13934;BME280;7039;52.168;9.866;2023-03-09T13:28:23;98888.78;;;5.77;75.59
13934;BME280;7039;52.168;9.866;2023-03-09T13:30:53;98888.06;;;5.59;76.08
13934;BME280;7039;52.168;9.866;2023-03-09T13:33:23;98890.88;;;5.86;75.97
13934;BME280;7039;52.168;9.866;2023-03-09T13:35:57;98897.88;;;5.84;76.21
13934;BME280;7039;52.168;9.866;2023-03-09T13:38:27;98899.91;;;5.95;75.62
13934;BME280;7039;52.168;9.866;2023-03-09T13:40:57;98903.06;;;5.84;76.10
13934;BME280;7039;52.168;9.866;2023-03-09T13:43:27;98908.06;;;5.24;78.05
13934;BME280;7039;52.168;9.866;2023-03-09T13:45:59;98913.84;;;5.45;78.38
13934;BME280;7039;52.168;9.866;2023-03-09T13:48:29;98905.09;;;5.48;77.51
13934;BME280;7039;52.168;9.866;2023-03-09T13:50:56;98904.66;;;5.39;77.98
13934;BME280;7039;52.168;9.866;2023-03-09T13:53:24;98913.59;;;5.65;77.52
13934;BME280;7039;52.168;9.866;2023-03-09T13:55:56;98901.63;;;5.31;78.21
13934;BME280;7039;52.168;9.866;2023-03-09T13:58:23;98903.66;;;5.58;77.70
13934;BME280;7039;52.168;9.866;2023-03-09T14:00:51;98913.25;;;5.72;77.13
13934;BME280;7039;52.168;9.866;2023-03-09T14:03:19;98906.09;;;5.77;77.31
13934;BME280;7039;52.168;9.866;2023-03-09T14:05:53;98903.88;;;5.85;77.58
13934;BME280;7039;52.168;9.866;2023-03-09T14:08:22;98908.56;;;5.47;77.18
13934;BME280;7039;52.168;9.866;2023-03-09T14:10:49;98899.66;;;5.68;77.12
13934;BME280;7039;52.168;9.866;2023-03-09T14:13:18;98905.81;;;5.81;77.46
13934;BME280;7039;52.168;9.866;2023-03-09T14:15:57;98901.72;;;5.77;77.61
13934;BME280;7039;52.168;9.866;2023-03-09T14:18:32;98896.81;;;5.73;77.62
13934;BME280;7039;52.168;9.866;2023-03-09T14:21:00;98893.03;;;5.94;77.04
13934;BME280;7039;52.168;9.866;2023-03-09T14:23:38;98887.47;;;6.02;77.02
13934;BME280;7039;52.168;9.866;2023-03-09T14:26:06;98884.28;;;5.97;77.05
13934;BME280;7039;52.168;9.866;2023-03-09T14:28:34;98890.34;;;6.12;77.06
13934;BME280;7039;52.168;9.866;2023-03-09T14:31:15;98879.38;;;5.29;79.82
13934;BME280;7039;52.168;9.866;2023-03-09T14:33:56;98884.66;;;5.27;79.87
13934;BME280;7039;52.168;9.866;2023-03-09T14:36:23;98883.91;;;5.41;79.71
13934;BME280;7039;52.168;9.866;2023-03-09T14:38:54;98879.47;;;5.59;79.30
13934;BME280;7039;52.168;9.866;2023-03-09T14:41:23;98890.59;;;5.91;78.18
13934;BME280;7039;52.168;9.866;2023-03-09T14:43:50;98882.56;;;5.65;78.97
13934;BME280;7039;52.168;9.866;2023-03-09T14:46:18;98882.34;;;6.00;77.50
13934;BME280;7039;52.168;9.866;2023-03-09T14:48:45;98890.75;;;6.04;77.93
13934;BME280;7039;52.168;9.866;2023-03-09T14:51:16;98887.03;;;6.24;76.98
13934;BME280;7039;52.168;9.866;2023-03-09T14:53:51;98882.06;;;6.35;76.69
13934;BME280;7039;52.168;9.866;2023-03-09T14:56:19;98881.69;;;5.97;76.85
13934;BME280;7039;52.168;9.866;2023-03-09T14:58:46;98867.16;;;5.94;76.88
13934;BME280;7039;52.168;9.866;2023-03-09T15:01:13;98873.31;;;5.92;77.60
13934;BME280;7039;52.168;9.866;2023-03-09T15:03:40;98863.72;;;5.94;77.34
13934;BME280;7039;52.168;9.866;2023-03-09T15:06:06;98872.81;;;6.01;77.11
13934;BME280;7039;52.168;9.866;2023-03-09T15:08:34;98866.03;;;6.14;76.66
13934;BME280;7039;52.168;9.866;2023-03-09T15:11:01;98871.66;;;6.06;76.58
13934;BME280;7039;52.168;9.866;2023-03-09T15:13:28;98860.91;;;5.98;76.73
13934;BME280;7039;52.168;9.866;2023-03-09T15:15:55;98854.97;;;5.96;76.58
13934;BME280;7039;52.168;9.866;2023-03-09T15:18:21;98845.59;;;5.94;76.94
13934;BME280;7039;52.168;9.866;2023-03-09T15:20:48;98847.63;;;5.89;77.38
13934;BME280;7039;52.168;9.866;2023-03-09T15:23:14;98843.56;;;5.69;77.53
13934;BME280;7039;52.168;9.866;2023-03-09T15:25:42;98849.41;;;5.72;77.24
13934;BME280;7039;52.168;9.866;2023-03-09T15:28:09;98842.97;;;5.79;77.51
13934;BME280;7039;52.168;9.866;2023-03-09T15:30:36;98839.72;;;5.76;77.24
13934;BME280;7039;52.168;9.866;2023-03-09T15:33:03;98835.81;;;5.69;77.60
13934;BME280;7039;52.168;9.866;2023-03-09T15:35:29;98833.72;;;5.75;77.49
13934;BME280;7039;52.168;9.866;2023-03-09T15:37:56;98829.19;;;5.79;77.23
13934;BME280;7039;52.168;9.866;2023-03-09T15:40:22;98834.84;;;5.85;76.80
13934;BME280;7039;52.168;9.866;2023-03-09T15:42:52;98837.81;;;5.79;76.87
13934;BME280;7039;52.168;9.866;2023-03-09T15:45:18;98827.66;;;5.44;77.82
13934;BME280;7039;52.168;9.866;2023-03-09T15:47:45;98832.50;;;5.51;77.84
13934;BME280;7039;52.168;9.866;2023-03-09T15:50:12;98822.69;;;5.41;78.27
13934;BME280;7039;52.168;9.866;2023-03-09T15:52:39;98824.94;;;5.48;78.12
13934;BME280;7039;52.168;9.866;2023-03-09T15:55:06;98821.97;;;5.54;77.26
13934;BME280;7039;52.168;9.866;2023-03-09T15:57:33;98812.59;;;5.37;77.65
13934;BME280;7039;52.168;9.866;2023-03-09T16:00:01;98816.19;;;5.34;78.14
13934;BME280;7039;52.168;9.866;2023-03-09T16:02:28;98812.78;;;5.34;78.23
13934;BME280;7039;52.168;9.866;2023-03-09T16:04:55;98806.84;;;5.16;78.69
13934;BME280;7039;52.168;9.866;2023-03-09T16:07:21;98820.28;;;5.22;78.69
13934;BME280;7039;52.168;9.866;2023-03-09T16:09:48;98823.44;;;5.12;78.42
13934;BME280;7039;52.168;9.866;2023-03-09T16:12:14;98823.00;;;5.03;78.90
13934;BME280;7039;52.168;9.866;2023-03-09T16:14:41;98815.69;;;5.12;78.45
13934;BME280;7039;52.168;9.866;2023-03-09T16:17:09;98819.78;;;5.00;78.79
13934;BME280;7039;52.168;9.866;2023-03-09T16:19:35;98817.19;;;5.00;78.53
13934;BME280;7039;52.168;9.866;2023-03-09T16:22:02;98822.16;;;4.87;78.65
13934;BME280;7039;52.168;9.866;2023-03-09T16:24:29;98824.41;;;4.77;78.99
13934;BME280;7039;52.168;9.866;2023-03-09T16:26:55;98826.34;;;4.90;78.91
13934;BME280;7039;52.168;9.866;2023-03-09T16:29:22;98825.59;;;4.88;78.73
13934;BME280;7039;52.168;9.866;2023-03-09T16:31:52;98824.94;;;4.84;78.65
13934;BME280;7039;52.168;9.866;2023-03-09T16:34:20;98817.28;;;4.65;78.92
13934;BME280;7039;52.168;9.866;2023-03-09T16:36:47;98812.13;;;4.65;78.74
13934;BME280;7039;52.168;9.866;2023-03-09T16:39:14;98821.34;;;4.53;79.45
13934;BME280;7039;52.168;9.866;2023-03-09T16:41:40;98814.06;;;4.62;79.19
13934;BME280;7039;52.168;9.866;2023-03-09T16:44:14;98814.88;;;4.62;79.43
13934;BME280;7039;52.168;9.866;2023-03-09T16:46:42;98818.59;;;4.56;79.30
13934;BME280;7039;52.168;9.866;2023-03-09T16:49:09;98815.91;;;4.42;79.72
13934;BME280;7039;52.168;9.866;2023-03-09T16:51:37;98821.59;;;4.49;79.94